Terminal Aerodrome Forecast
Issued by NWS

Home | Current Version | Previous Version | Text Only | Print | Product List | Glossary Off
Versions: 1 2 3 4 5 6 7 8 9 10 11 12 13 14 15 16 17 18 19 20 21 22

753
FTUS43 KBIS 112245 AAA
TAFJMS
TAF AMD
KJMS 112245Z 1123/1218 35007KT P6SM SCT015 OVC025
     FM120700 35007KT P6SM OVC040
     FM121200 34009KT P6SM SCT090=

USA.gov is the U.S. government's official web portal to all federal, state and local government web resources and services.